createdAt,value
2018-08-13T00:00:39.458Z,2.80
2018-08-13T00:05:36.221Z,3.40
2018-08-13T00:10:33.173Z,2.93
2018-08-13T00:15:29.866Z,2.77
2018-08-13T00:20:26.998Z,2.67
2018-08-13T00:25:24.061Z,3.00
2018-08-13T00:30:20.789Z,3.30
2018-08-13T00:35:17.799Z,3.30
2018-08-13T00:40:14.617Z,3.30
2018-08-13T00:45:12.734Z,3.10
2018-08-13T00:50:15.222Z,3.43
2018-08-13T00:55:13.511Z,3.07
2018-08-13T01:00:15.390Z,3.47
2018-08-13T01:05:12.601Z,3.50
2018-08-13T01:10:12.914Z,3.27
2018-08-13T01:15:11.083Z,3.30
2018-08-13T01:20:09.181Z,3.40
2018-08-13T01:25:07.997Z,2.93
2018-08-13T01:30:04.862Z,3.93
2018-08-13T01:35:01.819Z,3.27
2018-08-13T01:39:58.990Z,3.17
2018-08-13T01:44:55.952Z,3.50
2018-08-13T01:49:52.920Z,3.40
2018-08-13T01:54:50.273Z,3.67
2018-08-13T01:59:47.005Z,3.57
2018-08-13T02:04:44.008Z,3.77
2018-08-13T02:09:41.806Z,3.23
2018-08-13T02:14:38.733Z,3.50
2018-08-13T02:19:35.480Z,3.27
2018-08-13T02:24:32.452Z,3.20
2018-08-13T02:29:29.168Z,3.40
2018-08-13T02:34:26.675Z,3.50
2018-08-13T02:39:23.469Z,4.00
2018-08-13T02:44:20.511Z,3.60
2018-08-13T02:49:17.301Z,4.20
2018-08-13T02:54:14.619Z,3.70
2018-08-13T02:59:12.212Z,3.40
2018-08-13T03:04:08.969Z,3.33
2018-08-13T03:09:08.199Z,3.67
2018-08-13T03:14:05.017Z,3.10
2018-08-13T03:19:02.019Z,4.53
2018-08-13T03:23:59.042Z,3.63
2018-08-13T03:28:56.034Z,3.80
2018-08-13T03:33:52.707Z,3.77
2018-08-13T03:38:49.769Z,3.83
2018-08-13T03:43:46.458Z,3.67
2018-08-13T03:48:43.441Z,3.80
2018-08-13T03:53:40.204Z,3.80
2018-08-13T03:58:37.621Z,4.07
2018-08-13T04:03:34.659Z,3.63
2018-08-13T04:08:31.631Z,3.80
2018-08-13T04:13:28.414Z,3.93
2018-08-13T04:18:25.354Z,3.33
2018-08-13T04:23:22.420Z,3.80
2018-08-13T04:28:19.077Z,3.53
2018-08-13T04:33:16.140Z,4.03
2018-08-13T04:38:13.212Z,3.80
2018-08-13T04:43:10.279Z,3.80
2018-08-13T04:48:07.029Z,3.93
2018-08-13T04:53:04.133Z,4.23
2018-08-13T04:58:01.555Z,4.90
2018-08-13T05:02:58.533Z,4.00
2018-08-13T05:07:55.311Z,4.33
2018-08-13T05:12:52.292Z,4.13
2018-08-13T05:17:49.050Z,4.43
2018-08-13T05:22:46.179Z,4.50
2018-08-13T05:27:43.238Z,3.93
2018-08-13T05:32:40.005Z,4.10
2018-08-13T05:37:37.583Z,4.07
2018-08-13T05:42:34.310Z,3.90
2018-08-13T05:47:31.186Z,4.00
2018-08-13T05:52:27.946Z,3.83
2018-08-13T05:57:24.768Z,5.30
2018-08-13T06:02:22.202Z,4.13
2018-08-13T06:07:19.142Z,4.03
2018-08-13T06:12:16.196Z,4.00
2018-08-13T06:17:12.970Z,3.83
2018-08-13T06:22:10.219Z,3.95
2018-08-13T06:27:06.887Z,3.52
2018-08-13T06:32:03.836Z,3.20
2018-08-13T06:37:00.818Z,3.02
2018-08-13T06:41:57.973Z,3.10
2018-08-13T06:46:54.789Z,3.17
2018-08-13T06:51:51.801Z,3.25
2018-08-13T06:56:48.569Z,3.00
2018-08-13T07:01:45.525Z,2.60
2018-08-13T07:06:43.117Z,2.83
2018-08-13T07:11:40.051Z,3.02
2018-08-13T07:16:37.325Z,3.33
2018-08-13T07:21:34.193Z,3.00
2018-08-13T07:26:30.919Z,2.60
2018-08-13T07:31:28.014Z,2.50
2018-08-13T07:36:24.788Z,2.90
2018-08-13T07:41:22.233Z,2.20
2018-08-13T07:46:18.972Z,2.52
2018-08-13T07:51:15.691Z,2.50
2018-08-13T07:56:12.412Z,2.60
2018-08-13T08:01:09.667Z,2.55
2018-08-13T08:06:06.684Z,2.45
2018-08-13T08:11:04.026Z,7.03
2018-08-13T08:16:01.201Z,2.62
2018-08-13T08:20:58.001Z,2.42
2018-08-13T08:25:54.910Z,2.33
2018-08-13T08:30:51.969Z,2.60
2018-08-13T08:35:48.730Z,2.40
2018-08-13T08:40:45.532Z,2.20
2018-08-13T08:45:42.593Z,2.60
2018-08-13T08:50:39.337Z,2.60
2018-08-13T08:55:36.348Z,2.27
2018-08-13T09:00:33.082Z,2.83
2018-08-13T09:05:30.198Z,2.40
2018-08-13T09:10:27.377Z,2.25
2018-08-13T09:15:25.356Z,2.30
2018-08-13T09:20:28.236Z,2.15
2018-08-13T09:25:25.185Z,2.20
2018-08-13T09:30:27.647Z,2.20
2018-08-13T09:35:25.479Z,2.10
2018-08-13T09:40:22.449Z,1.98
2018-08-13T09:45:19.175Z,1.80
2018-08-13T09:50:17.410Z,2.10
2018-08-13T09:55:14.813Z,2.05
2018-08-13T10:00:18.054Z,2.00
2018-08-13T10:05:15.545Z,2.30
2018-08-13T10:10:12.757Z,2.10
2018-08-13T10:15:10.909Z,2.00
2018-08-13T10:20:09.189Z,2.02
2018-08-13T10:25:06.533Z,2.35
2018-08-13T10:30:04.358Z,2.30
2018-08-13T10:35:01.138Z,2.33
2018-08-13T10:39:58.176Z,2.25
2018-08-13T10:44:55.216Z,2.22
2018-08-13T10:49:52.106Z,2.40
2018-08-13T10:54:49.278Z,1.90
2018-08-13T10:59:45.949Z,2.00
2018-08-13T11:04:43.107Z,2.05
2018-08-13T11:09:40.057Z,1.85
2018-08-13T11:14:36.773Z,1.90
2018-08-13T11:19:33.767Z,2.22
2018-08-13T11:24:30.499Z,2.17
2018-08-13T11:29:28.215Z,2.40
2018-08-13T11:34:24.917Z,2.10
2018-08-13T11:39:21.939Z,2.08
2018-08-13T11:44:19.414Z,2.45
2018-08-13T11:49:16.150Z,2.47
2018-08-13T11:54:13.314Z,2.40
2018-08-13T11:59:09.973Z,2.33
2018-08-13T12:04:06.980Z,2.20
2018-08-13T12:09:06.107Z,2.20
2018-08-13T12:14:03.439Z,2.60
2018-08-13T12:19:00.136Z,2.40
2018-08-13T12:23:57.467Z,2.60
2018-08-13T12:28:53.942Z,2.30
2018-08-13T12:33:50.997Z,2.40
2018-08-13T12:38:47.948Z,2.70
2018-08-13T12:43:44.745Z,2.70
2018-08-13T12:48:41.687Z,2.83
2018-08-13T12:53:38.504Z,2.85
2018-08-13T12:58:35.383Z,2.40
2018-08-13T13:03:32.437Z,2.60
2018-08-13T13:08:29.185Z,2.65
2018-08-13T13:13:26.148Z,2.62
2018-08-13T13:18:22.917Z,2.90
2018-08-13T13:23:19.712Z,2.72
2018-08-13T13:28:16.901Z,2.40
2018-08-13T13:33:14.210Z,3.10
2018-08-13T13:38:11.102Z,2.72
2018-08-13T13:43:08.240Z,2.90
2018-08-13T13:48:06.454Z,2.70
2018-08-13T13:53:03.225Z,3.08
2018-08-13T13:58:00.157Z,2.95
2018-08-13T14:02:56.971Z,2.85
2018-08-13T14:07:53.920Z,2.98
2018-08-13T14:12:50.649Z,2.65
2018-08-13T14:17:47.923Z,3.05
2018-08-13T14:22:44.967Z,2.67
2018-08-13T14:27:41.729Z,2.60
2018-08-13T14:32:38.781Z,2.75
2018-08-13T14:37:36.456Z,2.37
2018-08-13T14:42:33.265Z,2.80
2018-08-13T14:47:30.286Z,2.95
2018-08-13T14:52:31.358Z,2.87
2018-08-13T14:57:28.108Z,2.20
2018-08-13T15:02:25.061Z,2.55
2018-08-13T15:07:22.088Z,2.30
2018-08-13T15:12:19.511Z,2.52
2018-08-13T15:17:16.240Z,2.30
2018-08-13T15:22:13.085Z,2.58
2018-08-13T15:27:09.873Z,2.40
2018-08-13T15:32:06.837Z,2.30
2018-08-13T15:37:03.713Z,2.30
2018-08-13T15:42:02.259Z,2.02
2018-08-13T15:46:59.168Z,2.35
2018-08-13T15:51:55.985Z,2.33
2018-08-13T15:56:52.821Z,2.40
2018-08-13T16:01:49.598Z,2.35
2018-08-13T16:06:46.487Z,2.20
2018-08-13T16:11:43.333Z,2.12
2018-08-13T16:16:40.513Z,2.30
2018-08-13T16:21:37.430Z,2.50
2018-08-13T16:26:34.780Z,2.45
2018-08-13T16:31:31.651Z,2.40
2018-08-13T16:36:28.826Z,2.62
2018-08-13T16:41:26.404Z,2.70
2018-08-13T16:46:23.485Z,2.45
2018-08-13T16:51:20.879Z,2.67
2018-08-13T16:56:18.868Z,2.45
2018-08-13T17:01:16.013Z,2.67
2018-08-13T17:06:12.875Z,2.22
2018-08-13T17:11:10.112Z,2.85
2018-08-13T17:16:07.677Z,2.40
2018-08-13T17:21:04.989Z,3.02
2018-08-13T17:26:02.346Z,2.77
2018-08-13T17:30:59.932Z,3.20
2018-08-13T17:35:57.012Z,2.62
2018-08-13T17:40:53.873Z,2.52
2018-08-13T17:45:50.917Z,2.85
2018-08-13T17:50:47.832Z,2.65
2018-08-13T17:55:44.898Z,3.33
2018-08-13T18:00:42.451Z,2.55
2018-08-13T18:10:42.508Z,2.90
2018-08-13T18:15:39.321Z,2.62
2018-08-13T18:20:36.417Z,3.10
2018-08-13T18:25:33.546Z,3.15
2018-08-13T18:30:30.335Z,3.62
2018-08-13T18:35:28.589Z,3.00
2018-08-13T18:40:27.263Z,3.22
2018-08-13T18:45:24.348Z,3.15
2018-08-13T18:50:21.921Z,3.37
2018-08-13T18:55:20.137Z,3.40
2018-08-13T19:00:20.749Z,2.80
2018-08-13T19:05:17.779Z,3.08
2018-08-13T19:10:15.715Z,2.98
2018-08-13T19:15:13.463Z,2.92
2018-08-13T19:20:11.270Z,3.62
2018-08-13T19:25:10.187Z,2.95
2018-08-13T19:30:07.851Z,3.47
2018-08-13T19:35:05.338Z,3.10
2018-08-13T19:40:02.899Z,3.70
2018-08-13T19:44:59.865Z,3.60
2018-08-13T19:49:56.685Z,4.00
2018-08-13T19:54:53.453Z,3.90
2018-08-13T19:59:50.674Z,4.17
2018-08-13T20:04:48.215Z,4.50
2018-08-13T20:09:46.299Z,4.80
2018-08-13T20:14:43.107Z,5.60
2018-08-13T20:19:40.099Z,5.20
2018-08-13T20:24:36.843Z,5.75
2018-08-13T20:29:33.541Z,5.83
2018-08-13T20:34:30.518Z,5.03
2018-08-13T20:39:27.265Z,4.70
2018-08-13T20:44:24.288Z,4.65
2018-08-13T20:49:21.574Z,5.95
2018-08-13T20:54:18.527Z,6.00
2018-08-13T20:59:15.935Z,5.20
2018-08-13T21:04:12.849Z,5.20
2018-08-13T21:09:11.683Z,5.00
2018-08-13T21:14:08.836Z,5.23
2018-08-13T21:19:06.159Z,5.23
2018-08-13T21:24:02.917Z,4.55
2018-08-13T21:28:59.954Z,4.50
2018-08-13T21:33:56.761Z,4.37
2018-08-13T21:38:53.993Z,3.77
2018-08-13T21:43:50.743Z,4.03
2018-08-13T21:48:47.735Z,3.93
2018-08-13T21:53:44.427Z,4.37
2018-08-13T21:58:41.500Z,3.80
2018-08-13T22:03:38.279Z,3.83
2018-08-13T22:08:35.155Z,3.57
2018-08-13T22:13:32.848Z,3.50
2018-08-13T22:18:29.902Z,3.50
2018-08-13T22:23:26.642Z,3.73
2018-08-13T22:28:23.603Z,3.13
2018-08-13T22:33:20.332Z,3.57
2018-08-13T22:38:17.442Z,3.60
2018-08-13T22:43:14.391Z,3.33
2018-08-13T22:48:11.189Z,3.50
2018-08-13T22:53:08.213Z,3.37
2018-08-13T22:58:04.958Z,3.10
2018-08-13T23:03:01.937Z,3.27
2018-08-13T23:07:58.620Z,3.40
2018-08-13T23:12:56.073Z,3.63
2018-08-13T23:17:53.554Z,3.77
2018-08-13T23:22:54.704Z,3.50
2018-08-13T23:27:52.822Z,3.20
2018-08-13T23:32:50.649Z,3.40
2018-08-13T23:37:48.063Z,3.37
2018-08-13T23:42:44.787Z,3.90
2018-08-13T23:47:41.873Z,3.90
2018-08-13T23:52:39.761Z,3.60
2018-08-13T23:57:36.505Z,3.70
